Time;durP1;ratioP1;P1;durP2;ratioP2;P2;SDS_P1;SDS_P2;PMS_P1;PMS_P2;Temp;Humidity;BMP_temperature;BMP_pressure;BME280_temperature;BME280_humidity;BME280_pressure;Samples;Min_cycle;Max_cycle;Signal;HPM_P1;HPM_P2
2023/12/21 00:51:10;;;;;;;;;;;;;;;;;;;;;
2023/12/21 07:35:01;;;;;;;19.50;4.22;;;;;;;;;;6209178;23;19926;-85
2023/12/21 07:48:09;;;;;;;14.20;3.83;;;;;;;;;;6084077;23;20034;-86
2023/12/21 07:58:02;;;;;;;15.70;4.20;;;;;;;;;;6036712;23;20030;-85
2023/12/21 08:00:34;;;;;;;16.05;4.88;;;;;;;;;;6013293;23;20023;-85
2023/12/21 08:06:39;;;;;;;15.45;4.53;;;;;;;;;;6037332;23;20390;-84
2023/12/21 08:09:46;;;;;;;15.43;4.07;;;;;;;;;;6012638;23;20023;-87
2023/12/21 08:13:03;;;;;;;;;;;;;;;;;;;;;
2023/12/21 08:16:07;;;;;;;21.45;4.63;;;;;;;;;;6055242;23;20093;-85
2023/12/21 08:18:44;;;;;;;15.70;5.10;;;;;;;;;;6053606;23;20023;-86
2023/12/21 08:28:07;;;;;;;18.33;4.57;;;;;;;;;;6008468;23;20072;-86
2023/12/21 08:40:47;;;;;;;23.75;5.03;;;;;;;;;;6065912;23;20487;-84
2023/12/21 08:43:34;;;;;;;14.20;4.05;;;;;;;;;;6042360;23;20103;-85
2023/12/21 08:46:00;;;;;;;;;;;;;;;;;;6115881;23;20032;-85
2023/12/21 08:48:26;;;;;;;15.38;3.75;;;;;;;;;;6136710;23;19999;-85
2023/12/21 08:50:52;;;;;;;16.08;4.30;;;;;;;;;;6136435;23;20043;-86
2023/12/21 08:53:28;;;;;;;16.27;4.18;;;;;;;;;;6137185;23;20319;-86
2023/12/21 08:55:59;;;;;;;20.93;4.63;;;;;;;;;;6137243;23;20021;-86
2023/12/21 08:58:26;;;;;;;14.07;3.88;;;;;;;;;;6136913;23;20036;-86
2023/12/21 09:00:52;;;;;;;22.98;5.75;;;;;;;;;;6136624;23;20031;-85
2023/12/21 09:03:24;;;;;;;13.57;3.90;;;;;;;;;;6137477;23;20027;-84
2023/12/21 09:06:04;;;;;;;16.20;4.13;;;;;;;;;;6136760;23;20021;-84
2023/12/21 09:08:35;;;;;;;19.20;4.60;;;;;;;;;;6136927;23;20021;-84
2023/12/21 09:11:10;;;;;;;22.60;4.28;;;;;;;;;;6136390;23;20028;-85
2023/12/21 09:14:01;;;;;;;16.20;5.17;;;;;;;;;;6136791;23;20446;-84
2023/12/21 09:16:28;;;;;;;14.80;4.68;;;;;;;;;;6160575;23;20349;-84
2023/12/21 09:19:00;;;;;;;15.80;3.90;;;;;;;;;;6136583;23;20446;-84
2023/12/21 09:21:29;;;;;;;18.08;4.22;;;;;;;;;;6135720;23;20469;-84
2023/12/21 09:24:21;;;;;;;16.52;3.65;;;;;;;;;;6136231;23;20039;-84
2023/12/21 09:27:10;;;;;;;22.05;4.75;;;;;;;;;;6163130;23;20060;-84
2023/12/21 09:29:40;;;;;;;14.82;3.65;;;;;;;;;;6136203;23;20021;-84
2023/12/21 09:35:22;;;;;;;16.17;3.60;;;;;;;;;;6159927;23;20027;-84
2023/12/21 09:37:57;;;;;;;11.55;4.05;;;;;;;;;;6158892;23;20056;-84
2023/12/21 09:40:26;;;;;;;16.25;3.72;;;;;;;;;;6161515;23;20027;-84
2023/12/21 09:42:57;;;;;;;13.15;3.65;;;;;;;;;;6164279;23;20079;-84
2023/12/21 09:45:24;;;;;;;14.38;3.78;;;;;;;;;;6165079;23;20396;-84
2023/12/21 09:47:51;;;;;;;12.75;3.20;;;;;;;;;;6165042;23;20020;-84
2023/12/21 09:50:21;;;;;;;17.92;4.25;;;;;;;;;;6165307;23;20017;-84
2023/12/21 09:52:54;;;;;;;13.82;3.90;;;;;;;;;;6165236;23;20076;-84
2023/12/21 09:55:21;;;;;;;23.08;4.43;;;;;;;;;;6166124;23;20457;-84
2023/12/21 09:58:11;;;;;;;22.55;4.75;;;;;;;;;;6164970;23;20016;-88
2023/12/21 10:00:59;;;;;;;17.25;4.82;;;;;;;;;;6190927;23;20342;-84
2023/12/21 10:03:46;;;;;;;18.70;4.10;;;;;;;;;;6166242;23;20021;-85
2023/12/21 10:06:20;;;;;;;18.48;4.38;;;;;;;;;;6165719;23;20710;-87
2023/12/21 10:09:08;;;;;;;17.85;6.32;;;;;;;;;;6165540;23;20021;-87
2023/12/21 10:11:38;;;;;;;19.70;5.35;;;;;;;;;;6189474;23;20017;-85
2023/12/21 10:24:27;;;;;;;18.92;4.10;;;;;;;;;;6095674;23;20063;-86
2023/12/21 10:27:12;;;;;;;;;;;;;;;;;;;;;
2023/12/21 10:44:18;;;;;;;16.23;4.03;;;;;;;;;;6095670;23;20021;-85
2023/12/21 10:46:57;;;;;;;14.48;4.38;;;;;;;;;;6074051;23;20103;-84
2023/12/21 10:49:26;;;;;;;12.23;3.67;;;;;;;;;;6046925;23;20022;-84
2023/12/21 10:52:28;;;;;;;13.45;3.40;;;;;;;;;;6049544;23;20157;-86
2023/12/21 10:55:02;;;;;;;14.18;3.42;;;;;;;;;;6164269;23;20040;-85
2023/12/21 11:00:56;;;;;;;12.98;4.13;;;;;;;;;;6124085;23;20152;-88
2023/12/21 11:03:23;;;;;;;18.42;3.67;;;;;;;;;;6095825;23;20052;-87
2023/12/21 11:06:08;;;;;;;15.65;4.25;;;;;;;;;;6162529;23;20472;-86
2023/12/21 11:11:47;;;;;;;14.55;4.30;;;;;;;;;;6178458;23;20074;-85
2023/12/21 11:17:40;;;;;;;16.45;4.05;;;;;;;;;;6104499;23;20041;-85
2023/12/21 11:20:16;;;;;;;14.15;4.13;;;;;;;;;;6152216;23;20021;-86
2023/12/21 11:33:12;;;;;;;17.55;4.88;;;;;;;;;;6094762;23;20086;-85
2023/12/21 11:36:02;;;;;;;15.13;3.63;;;;;;;;;;6047437;23;20027;-85
2023/12/21 11:39:38;;;;;;;16.00;3.80;;;;;;;;;;6211305;23;20070;-86
2023/12/21 11:49:59;;;;;;;17.10;4.55;;;;;;;;;;6215776;23;20084;-87
2023/12/21 11:52:49;;;;;;;18.73;4.82;;;;;;;;;;6047595;23;20019;-86
2023/12/21 11:55:42;;;;;;;25.42;6.30;;;;;;;;;;6051168;23;20105;-87
2023/12/21 11:58:47;;;;;;;;;;;;;;;;;;;;;
2023/12/21 12:22:20;;;;;;;;;;;;;;;;;;;;;
2023/12/21 12:36:06;;;;;;;23.77;4.55;;;;;;;;;;6063108;23;20488;-86
2023/12/21 12:39:12;;;;;;;16.90;4.47;;;;;;;;;;6041131;23;20011;-86
2023/12/21 13:27:58;;;;;;;25.08;5.70;;;;;;;;;;5870109;24;20227;-86
2023/12/21 13:47:34;;;;;;;12.65;3.65;;;;;;;;;;5849971;24;20026;-85
2023/12/21 13:50:01;;;;;;;23.08;4.68;;;;;;;;;;5876449;24;20379;-85
2023/12/21 13:52:27;;;;;;;20.45;4.07;;;;;;;;;;6034428;23;20030;-84
2023/12/21 13:54:54;;;;;;;17.50;3.70;;;;;;;;;;6078644;23;20025;-85
2023/12/21 13:57:20;;;;;;;29.13;6.10;;;;;;;;;;6138716;23;20023;-84
2023/12/21 13:59:46;;;;;;;20.50;5.03;;;;;;;;;;6138365;23;20025;-84
2023/12/21 14:02:13;;;;;;;19.55;3.33;;;;;;;;;;6138216;23;20017;-84
2023/12/21 14:04:40;;;;;;;18.70;4.93;;;;;;;;;;6138338;23;20458;-84
2023/12/21 14:07:08;;;;;;;18.77;4.43;;;;;;;;;;6137305;23;20021;-84
2023/12/21 14:09:37;;;;;;;15.85;3.05;;;;;;;;;;6136156;23;20057;-84
2023/12/21 14:12:03;;;;;;;13.63;3.90;;;;;;;;;;6161719;23;20033;-84
2023/12/21 14:14:32;;;;;;;17.63;3.60;;;;;;;;;;6137901;23;20017;-84
2023/12/21 14:16:58;;;;;;;25.17;4.50;;;;;;;;;;6135598;23;20021;-84
2023/12/21 14:19:32;;;;;;;17.52;5.22;;;;;;;;;;6136524;23;20028;-84
2023/12/21 14:22:02;;;;;;;19.55;4.20;;;;;;;;;;6136379;23;20021;-84
2023/12/21 14:24:31;;;;;;;24.80;5.55;;;;;;;;;;6136379;23;20017;-84
2023/12/21 14:27:19;;;;;;;28.83;6.35;;;;;;;;;;6136426;23;20027;-85
2023/12/21 14:30:01;;;;;;;25.50;4.78;;;;;;;;;;6136214;23;20024;-85
2023/12/21 14:33:01;;;;;;;20.90;5.00;;;;;;;;;;6162611;23;20458;-85
2023/12/21 14:35:51;;;;;;;24.48;5.80;;;;;;;;;;6081633;23;20067;-85
2023/12/21 14:41:47;;;;;;;22.52;5.05;;;;;;;;;;6033997;23;20058;-85
2023/12/21 14:48:44;;;;;;;;;;;;;;;;;;;;;
2023/12/21 14:52:17;;;;;;;;;;;;;;;;;;;;;
2023/12/21 15:09:51;;;;;;;18.23;5.38;;;;;;;;;;6009863;23;20468;-86
2023/12/21 15:33:24;;;;;;;19.80;4.72;;;;;;;;;;6066066;23;20037;-88
2023/12/21 15:36:06;;;;;;;28.58;6.18;;;;;;;;;;6008130;23;20034;-88
2023/12/21 15:38:45;;;;;;;21.98;6.32;;;;;;;;;;6042083;23;20082;-86
2023/12/21 15:41:21;;;;;;;35.13;8.90;;;;;;;;;;6146891;23;20454;-87
2023/12/21 16:09:26;;;;;;;;;;;;;;;;;;;;;
2023/12/21 16:50:51;;;;;;;;;;;;;;;;;;;;;
2023/12/21 16:54:01;;;;;;;23.65;5.45;;;;;;;;;;6184906;23;20099;-88
2023/12/21 16:59:41;;;;;;;26.13;6.35;;;;;;;;;;6093739;23;20018;-87
2023/12/21 17:06:08;;;;;;;21.05;6.75;;;;;;;;;;5980837;24;20427;-88
2023/12/21 17:12:28;;;;;;;23.95;4.95;;;;;;;;;;6067218;23;20026;-90
2023/12/21 17:15:32;;;;;;;19.10;5.15;;;;;;;;;;6019883;23;20050;-88
2023/12/21 17:32:08;;;;;;;25.52;6.20;;;;;;;;;;6038187;23;20023;-87
2023/12/21 17:34:55;;;;;;;22.63;5.63;;;;;;;;;;5992642;23;20171;-90
2023/12/21 17:37:54;;;;;;;29.85;6.45;;;;;;;;;;6014118;23;20023;-87
2023/12/21 17:40:23;;;;;;;26.13;6.03;;;;;;;;;;5991739;23;20430;-88
2023/12/21 17:42:49;;;;;;;25.58;5.30;;;;;;;;;;5991061;23;20096;-87
2023/12/21 17:45:19;;;;;;;20.02;5.93;;;;;;;;;;6015469;23;20105;-87
2023/12/21 17:47:54;;;;;;;27.35;6.43;;;;;;;;;;6090695;23;20017;-89
2023/12/21 17:50:20;;;;;;;22.52;5.75;;;;;;;;;;6166382;23;20340;-89
2023/12/21 17:52:49;;;;;;;24.35;6.28;;;;;;;;;;6166163;23;20016;-86
2023/12/21 17:55:15;;;;;;;31.58;6.93;;;;;;;;;;6165308;23;20032;-86
2023/12/21 17:57:41;;;;;;;22.52;5.93;;;;;;;;;;6166522;23;20016;-88
2023/12/21 18:00:09;;;;;;;28.15;5.80;;;;;;;;;;6190183;23;20461;-87
2023/12/21 18:02:35;;;;;;;28.73;6.22;;;;;;;;;;6165838;23;20344;-87
2023/12/21 18:05:03;;;;;;;19.65;6.95;;;;;;;;;;6165880;23;20476;-87
2023/12/21 18:07:32;;;;;;;21.30;5.88;;;;;;;;;;6167213;23;20020;-87
2023/12/21 18:09:58;;;;;;;23.90;6.40;;;;;;;;;;6165415;23;20020;-88
2023/12/21 18:12:25;;;;;;;20.98;5.63;;;;;;;;;;6165276;23;20017;-87
2023/12/21 18:14:51;;;;;;;32.65;7.38;;;;;;;;;;6165899;23;20287;-87
2023/12/21 18:17:17;;;;;;;24.55;6.00;;;;;;;;;;6165634;23;20386;-88
2023/12/21 18:19:43;;;;;;;21.50;5.07;;;;;;;;;;6165274;23;20021;-87
2023/12/21 18:22:13;;;;;;;20.48;6.38;;;;;;;;;;6165913;23;20027;-87
2023/12/21 18:24:40;;;;;;;29.50;6.93;;;;;;;;;;6165280;23;20028;-87
2023/12/21 18:27:06;;;;;;;22.70;6.00;;;;;;;;;;6165389;23;20311;-86
2023/12/21 18:29:32;;;;;;;20.60;5.60;;;;;;;;;;6165520;23;20445;-87
2023/12/21 18:31:58;;;;;;;27.67;6.45;;;;;;;;;;6165630;23;20020;-87
2023/12/21 18:34:25;;;;;;;22.95;6.43;;;;;;;;;;6166297;23;20369;-87
2023/12/21 18:36:51;;;;;;;19.20;6.60;;;;;;;;;;6165651;23;20081;-88
2023/12/21 18:39:18;;;;;;;29.92;6.78;;;;;;;;;;6166387;23;20017;-88
2023/12/21 18:41:44;;;;;;;30.42;6.88;;;;;;;;;;6165074;23;20116;-87
2023/12/21 18:44:10;;;;;;;26.67;6.90;;;;;;;;;;6165380;23;20080;-87
2023/12/21 18:46:44;;;;;;;29.02;7.55;;;;;;;;;;6165131;23;20063;-88
2023/12/21 18:49:10;;;;;;;24.40;6.63;;;;;;;;;;6165013;23;20025;-87
2023/12/21 18:51:43;;;;;;;24.10;6.38;;;;;;;;;;6165401;23;20017;-87
2023/12/21 18:54:09;;;;;;;24.67;6.93;;;;;;;;;;6165441;23;20063;-88
2023/12/21 18:56:35;;;;;;;22.27;5.65;;;;;;;;;;6165217;23;20345;-87
2023/12/21 18:59:01;;;;;;;28.45;6.78;;;;;;;;;;6164732;23;20473;-88
2023/12/21 19:01:27;;;;;;;18.80;6.43;;;;;;;;;;6165257;23;20030;-88
2023/12/21 19:03:56;;;;;;;24.05;5.72;;;;;;;;;;6165094;23;20028;-87
2023/12/21 19:06:24;;;;;;;30.58;5.65;;;;;;;;;;6164734;23;20469;-87
2023/12/21 19:08:53;;;;;;;25.30;5.30;;;;;;;;;;6165751;23;20021;-87
2023/12/21 19:11:20;;;;;;;25.08;6.68;;;;;;;;;;6165162;23;20016;-87
2023/12/21 19:13:47;;;;;;;29.65;6.25;;;;;;;;;;6165988;23;20445;-87
2023/12/21 19:16:17;;;;;;;24.95;5.60;;;;;;;;;;6165028;23;20021;-89
2023/12/21 19:18:46;;;;;;;25.73;5.70;;;;;;;;;;6164797;23;20016;-87
2023/12/21 19:21:18;;;;;;;22.30;5.07;;;;;;;;;;6164272;23;20102;-88
2023/12/21 19:23:44;;;;;;;15.50;5.45;;;;;;;;;;6165128;23;20024;-88
2023/12/21 19:26:11;;;;;;;22.73;5.18;;;;;;;;;;6164877;23;20397;-86
2023/12/21 19:28:37;;;;;;;20.85;5.65;;;;;;;;;;6189326;23;20029;-87
2023/12/21 19:31:06;;;;;;;25.70;5.78;;;;;;;;;;6164386;23;20111;-87
2023/12/21 19:33:32;;;;;;;17.40;4.82;;;;;;;;;;6165214;23;20024;-87
2023/12/21 19:36:01;;;;;;;19.75;5.30;;;;;;;;;;6165159;23;20463;-86
2023/12/21 19:38:30;;;;;;;23.58;5.72;;;;;;;;;;6165460;23;20102;-87
2023/12/21 19:40:57;;;;;;;26.98;6.75;;;;;;;;;;6164428;23;20346;-87
2023/12/21 19:43:23;;;;;;;25.27;6.10;;;;;;;;;;6165164;23;20075;-87
2023/12/21 19:45:49;;;;;;;23.65;5.63;;;;;;;;;;6165057;23;20099;-86
2023/12/21 19:48:15;;;;;;;24.23;5.90;;;;;;;;;;6164708;23;20020;-86
2023/12/21 19:50:44;;;;;;;25.75;7.05;;;;;;;;;;6163986;23;20022;-86
2023/12/21 19:53:11;;;;;;;20.88;5.65;;;;;;;;;;6164873;23;20471;-87
2023/12/21 19:55:37;;;;;;;31.80;6.88;;;;;;;;;;6164542;23;20071;-86
2023/12/21 19:58:05;;;;;;;22.92;5.93;;;;;;;;;;6164590;23;20056;-87
2023/12/21 20:00:35;;;;;;;18.70;5.45;;;;;;;;;;6164532;23;20108;-87
2023/12/21 20:03:04;;;;;;;25.50;6.60;;;;;;;;;;6164525;23;20326;-87
2023/12/21 20:05:30;;;;;;;18.58;5.68;;;;;;;;;;6164920;23;20461;-87
2023/12/21 20:07:59;;;;;;;22.20;4.95;;;;;;;;;;6164694;23;20062;-87
2023/12/21 20:10:25;;;;;;;18.92;5.50;;;;;;;;;;6189145;23;20040;-87
2023/12/21 20:12:51;;;;;;;22.27;4.78;;;;;;;;;;6189002;23;20027;-87
2023/12/21 20:15:18;;;;;;;24.65;6.82;;;;;;;;;;6164660;23;20052;-86
2023/12/21 20:17:44;;;;;;;18.70;4.80;;;;;;;;;;6163829;23;20405;-87
2023/12/21 20:20:14;;;;;;;17.70;5.78;;;;;;;;;;6165012;23;20100;-88
2023/12/21 20:22:41;;;;;;;18.77;5.50;;;;;;;;;;6163970;23;20055;-89
2023/12/21 20:25:08;;;;;;;19.27;5.60;;;;;;;;;;6164100;23;20056;-87
2023/12/21 20:27:38;;;;;;;26.02;5.80;;;;;;;;;;6165149;23;20083;-86
2023/12/21 20:30:04;;;;;;;22.70;5.80;;;;;;;;;;6164236;23;20039;-86
2023/12/21 20:32:31;;;;;;;17.98;6.20;;;;;;;;;;6189891;23;20016;-87
2023/12/21 20:34:57;;;;;;;19.75;5.45;;;;;;;;;;6165321;23;20024;-87
2023/12/21 20:37:24;;;;;;;21.15;5.38;;;;;;;;;;6165006;23;20020;-87
2023/12/21 20:39:51;;;;;;;21.45;5.15;;;;;;;;;;6164561;23;20024;-86
2023/12/21 20:42:17;;;;;;;19.00;4.90;;;;;;;;;;6163858;23;20402;-87
2023/12/21 20:44:43;;;;;;;13.38;4.53;;;;;;;;;;6188886;23;20021;-88
2023/12/21 20:47:12;;;;;;;17.33;4.63;;;;;;;;;;6163615;23;20020;-87
2023/12/21 20:49:44;;;;;;;21.27;5.45;;;;;;;;;;6164164;23;20017;-88
2023/12/21 20:52:12;;;;;;;19.15;4.53;;;;;;;;;;6164413;23;20016;-87
2023/12/21 20:54:39;;;;;;;14.07;5.00;;;;;;;;;;6164038;23;20107;-88
2023/12/21 20:57:05;;;;;;;18.15;4.90;;;;;;;;;;6163533;23;20484;-87
2023/12/21 20:59:32;;;;;;;22.05;5.30;;;;;;;;;;6164893;23;20322;-87
2023/12/21 21:01:59;;;;;;;23.58;4.90;;;;;;;;;;6164313;23;20016;-87
2023/12/21 21:04:28;;;;;;;20.27;5.53;;;;;;;;;;6163921;23;20350;-87
2023/12/21 21:06:57;;;;;;;23.33;6.65;;;;;;;;;;6164578;23;20024;-87
2023/12/21 21:09:25;;;;;;;21.83;5.45;;;;;;;;;;6164080;23;20096;-87
2023/12/21 21:11:51;;;;;;;19.90;4.40;;;;;;;;;;6163894;23;20025;-88
2023/12/21 21:14:17;;;;;;;23.92;5.20;;;;;;;;;;6163820;23;20028;-88
2023/12/21 21:16:45;;;;;;;23.40;5.13;;;;;;;;;;6163741;23;20016;-87
2023/12/21 21:19:11;;;;;;;26.40;6.50;;;;;;;;;;6164159;23;20028;-87
2023/12/21 21:21:38;;;;;;;31.15;6.85;;;;;;;;;;6164372;23;20023;-87
2023/12/21 21:24:04;;;;;;;25.75;6.07;;;;;;;;;;6163941;23;20024;-87
2023/12/21 21:26:30;;;;;;;19.05;5.10;;;;;;;;;;6163912;23;20017;-86
2023/12/21 21:28:56;;;;;;;18.23;5.22;;;;;;;;;;6163513;23;20021;-86
2023/12/21 21:31:26;;;;;;;21.65;5.25;;;;;;;;;;6163965;23;20055;-87
2023/12/21 21:33:58;;;;;;;14.25;4.72;;;;;;;;;;6164317;23;20524;-86
2023/12/21 21:36:24;;;;;;;17.02;4.22;;;;;;;;;;6164041;23;20099;-84
2023/12/21 21:38:54;;;;;;;27.10;5.18;;;;;;;;;;6188506;23;20024;-85
2023/12/21 21:41:22;;;;;;;18.33;4.47;;;;;;;;;;6163587;23;20515;-84
2023/12/21 21:44:28;;;;;;;23.95;5.25;;;;;;;;;;6164147;23;20323;-85
2023/12/21 21:47:29;;;;;;;23.77;5.82;;;;;;;;;;6008880;23;20146;-84
2023/12/21 21:49:56;;;;;;;19.42;5.45;;;;;;;;;;5997059;23;20511;-85
2023/12/21 21:52:32;;;;;;;23.00;5.88;;;;;;;;;;6126740;23;20457;-85
2023/12/21 21:55:02;;;;;;;20.38;5.72;;;;;;;;;;6135354;23;20025;-84
2023/12/21 21:57:28;;;;;;;20.23;5.43;;;;;;;;;;6134467;23;20020;-85
2023/12/21 22:00:06;;;;;;;20.67;5.70;;;;;;;;;;6135436;23;20021;-85
2023/12/21 22:02:44;;;;;;;18.48;5.85;;;;;;;;;;6136767;23;20017;-85
2023/12/21 22:05:10;;;;;;;21.38;4.25;;;;;;;;;;6136352;23;20442;-86
2023/12/21 22:07:39;;;;;;;29.80;5.90;;;;;;;;;;6135623;23;20028;-86
2023/12/21 22:10:05;;;;;;;26.38;6.35;;;;;;;;;;6135474;23;20067;-86
2023/12/21 22:12:31;;;;;;;16.73;4.72;;;;;;;;;;6135693;23;20087;-85
2023/12/21 22:14:57;;;;;;;14.52;4.15;;;;;;;;;;6136027;23;20100;-86
2023/12/21 22:17:26;;;;;;;13.55;3.30;;;;;;;;;;6135831;23;20073;-85
2023/12/21 22:19:52;;;;;;;9.20;3.38;;;;;;;;;;6135698;23;20049;-85
2023/12/21 22:22:18;;;;;;;14.30;3.08;;;;;;;;;;6135774;23;20406;-85
2023/12/21 22:24:44;;;;;;;10.85;3.08;;;;;;;;;;6136033;23;20025;-85
2023/12/21 22:27:10;;;;;;;15.30;4.07;;;;;;;;;;6135603;23;20126;-85
2023/12/21 22:29:37;;;;;;;17.58;4.72;;;;;;;;;;6159917;23;20017;-86
2023/12/21 22:32:04;;;;;;;10.20;3.67;;;;;;;;;;6136312;23;20018;-86
2023/12/21 22:34:30;;;;;;;17.80;4.63;;;;;;;;;;6135039;23;20070;-86
2023/12/21 22:36:56;;;;;;;14.93;4.22;;;;;;;;;;6135417;23;20327;-85
2023/12/21 22:39:22;;;;;;;17.42;4.43;;;;;;;;;;6135905;23;20017;-85
2023/12/21 22:41:48;;;;;;;18.25;4.50;;;;;;;;;;6135234;23;20017;-85
2023/12/21 22:44:15;;;;;;;26.48;5.43;;;;;;;;;;6135462;23;20029;-86
2023/12/21 22:46:44;;;;;;;14.55;4.72;;;;;;;;;;6138041;23;20032;-86
2023/12/21 22:49:13;;;;;;;23.52;4.82;;;;;;;;;;6165114;23;20460;-86
2023/12/21 22:51:40;;;;;;;23.25;5.20;;;;;;;;;;6165362;23;20507;-85
2023/12/21 22:54:08;;;;;;;15.77;4.93;;;;;;;;;;6164599;23;20104;-85
2023/12/21 22:56:34;;;;;;;22.27;5.40;;;;;;;;;;6164838;23;20112;-86
2023/12/21 22:59:00;;;;;;;26.77;5.53;;;;;;;;;;6165100;23;20020;-85
2023/12/21 23:01:26;;;;;;;20.90;5.47;;;;;;;;;;6165362;23;20029;-86
2023/12/21 23:03:52;;;;;;;28.60;5.68;;;;;;;;;;6164548;23;20021;-85
2023/12/21 23:06:21;;;;;;;18.85;4.35;;;;;;;;;;6164414;23;20537;-85
2023/12/21 23:08:47;;;;;;;18.92;4.65;;;;;;;;;;6165006;23;20042;-85
2023/12/21 23:11:15;;;;;;;15.20;3.47;;;;;;;;;;6164995;23;20311;-85
2023/12/21 23:13:42;;;;;;;16.23;3.95;;;;;;;;;;6189672;23;20020;-85
2023/12/21 23:16:08;;;;;;;14.65;4.47;;;;;;;;;;6164429;23;20023;-85
2023/12/21 23:18:34;;;;;;;18.55;4.65;;;;;;;;;;6165492;23;20074;-85
2023/12/21 23:21:00;;;;;;;17.15;4.20;;;;;;;;;;6165044;23;20020;-85
2023/12/21 23:23:26;;;;;;;19.83;5.55;;;;;;;;;;6165429;23;20059;-86
2023/12/21 23:25:52;;;;;;;14.32;3.85;;;;;;;;;;6164502;23;20445;-85
2023/12/21 23:28:18;;;;;;;15.15;4.78;;;;;;;;;;6164596;23;20028;-86
2023/12/21 23:30:44;;;;;;;23.25;5.88;;;;;;;;;;6164661;23;20021;-85
2023/12/21 23:33:11;;;;;;;19.20;4.95;;;;;;;;;;6164602;23;20025;-85
2023/12/21 23:35:37;;;;;;;15.43;3.75;;;;;;;;;;6164748;23;20448;-85
2023/12/21 23:38:03;;;;;;;12.13;5.00;;;;;;;;;;6165513;23;20044;-86
2023/12/21 23:40:30;;;;;;;13.05;3.38;;;;;;;;;;6164156;23;20025;-86
2023/12/21 23:42:56;;;;;;;14.40;3.67;;;;;;;;;;6165420;23;20016;-86
2023/12/21 23:45:22;;;;;;;18.55;3.72;;;;;;;;;;6164483;23;20171;-86
2023/12/21 23:47:48;;;;;;;14.18;3.70;;;;;;;;;;6164092;23;20020;-86
2023/12/21 23:50:14;;;;;;;12.18;3.55;;;;;;;;;;6164295;23;20021;-85
2023/12/21 23:52:40;;;;;;;15.15;4.13;;;;;;;;;;6164581;23;20099;-86
2023/12/21 23:55:07;;;;;;;24.52;4.57;;;;;;;;;;6164305;23;20099;-86
2023/12/21 23:57:36;;;;;;;14.85;4.55;;;;;;;;;;6164614;23;20337;-86
